Time;durP1;ratioP1;P1;durP2;ratioP2;P2;SDS_P1;SDS_P2;PMS_P1;PMS_P2;Temp;Humidity;BMP_temperature;BMP_pressure;BME280_temperature;BME280_humidity;BME280_pressure;Samples;Min_cycle;Max_cycle;Signal;HPM_P1;HPM_P2
2021/05/01 03:02:09;;;;;;;11.83;6.50;;;;;;;12.21;100.00;99992.13;1747247;78;64507;-64
2021/05/01 03:04:38;;;;;;;11.83;6.87;;;;;;;12.41;100.00;99998.16;1752805;80;21623;-66
2021/05/01 03:07:06;;;;;;;9.03;6.07;;;;;;;12.62;100.00;99999.78;1749756;80;21356;-64
2021/05/01 03:09:36;;;;;;;9.70;6.30;;;;;;;12.85;100.00;100004.07;1746476;80;22134;-64
2021/05/01 03:12:06;;;;;;;9.40;6.10;;;;;;;13.19;100.00;100010.55;1750649;80;21785;-63
2021/05/01 03:14:35;;;;;;;7.83;5.47;;;;;;;13.61;100.00;100013.94;1751257;80;21745;-65
2021/05/01 03:17:04;;;;;;;7.77;5.37;;;;;;;14.23;100.00;100012.06;1708240;82;21849;-66
2021/05/01 03:19:33;;;;;;;12.90;5.53;;;;;;;14.85;100.00;99951.33;1717024;82;22488;-61
2021/05/01 03:22:02;;;;;;;9.63;5.80;;;;;;;15.20;100.00;100006.67;1741754;80;21600;-62
2021/05/01 03:24:31;;;;;;;11.37;6.00;;;;;;;15.55;100.00;100013.41;1750406;80;21643;-61
2021/05/01 03:26:59;;;;;;;7.50;5.07;;;;;;;16.02;100.00;100016.75;1749557;80;21200;-62
2021/05/01 03:29:28;;;;;;;8.67;4.90;;;;;;;16.37;100.00;100022.11;1749318;80;21574;-61
2021/05/01 03:31:56;;;;;;;8.90;5.60;;;;;;;16.68;100.00;100022.30;1750711;80;21153;-62
2021/05/01 03:34:25;;;;;;;12.70;6.33;;;;;;;17.00;100.00;100014.07;1750376;80;22110;-65
2021/05/01 03:36:53;;;;;;;8.07;5.87;;;;;;;17.25;100.00;100012.49;1738779;80;21642;-62
2021/05/01 03:39:22;;;;;;;8.77;5.97;;;;;;;17.57;100.00;100012.84;1749028;80;21160;-61
2021/05/01 03:41:50;;;;;;;7.97;5.40;;;;;;;17.93;100.00;100016.18;1751168;80;21165;-62
2021/05/01 03:44:19;;;;;;;7.37;5.20;;;;;;;18.14;100.00;100018.63;1750290;80;21570;-63
2021/05/01 03:46:47;;;;;;;8.90;5.63;;;;;;;18.17;100.00;100014.20;1750752;80;21216;-62
2021/05/01 03:49:16;;;;;;;8.13;5.10;;;;;;;18.07;100.00;100014.02;1749880;80;21216;-62
2021/05/01 03:51:44;;;;;;;7.77;5.20;;;;;;;17.85;100.00;100012.61;1750485;80;21100;-62
2021/05/01 03:54:13;;;;;;;7.83;5.07;;;;;;;17.61;100.00;100010.02;1750484;80;21144;-63
2021/05/01 03:56:41;;;;;;;7.00;4.70;;;;;;;17.42;100.00;100012.03;1749664;80;21141;-63
2021/05/01 03:59:10;;;;;;;9.73;6.00;;;;;;;17.19;100.00;100016.84;1750184;80;21456;-63
2021/05/01 04:01:39;;;;;;;10.87;4.70;;;;;;;16.93;100.00;100026.55;1750450;80;21299;-62
2021/05/01 04:04:10;;;;;;;7.50;5.17;;;;;;;16.66;100.00;100026.98;1713671;82;21125;-62
2021/05/01 04:06:39;;;;;;;9.00;5.30;;;;;;;16.46;100.00;100027.84;1753159;80;21219;-66
2021/05/01 04:09:07;;;;;;;6.47;5.13;;;;;;;16.35;100.00;100029.94;1751499;80;21124;-63
2021/05/01 04:11:35;;;;;;;7.47;5.07;;;;;;;16.27;100.00;100025.80;1751047;80;22822;-62
2021/05/01 04:14:04;;;;;;;10.27;5.53;;;;;;;16.18;100.00;100030.59;1750603;80;21199;-62
2021/05/01 04:16:32;;;;;;;9.30;5.23;;;;;;;16.13;100.00;100027.81;1748615;80;21171;-61
2021/05/01 04:19:01;;;;;;;7.47;5.13;;;;;;;16.12;100.00;100031.48;1750615;80;21014;-63
2021/05/01 04:21:30;;;;;;;7.00;5.23;;;;;;;16.13;100.00;100028.34;1751464;80;21172;-65
2021/05/01 04:23:58;;;;;;;10.47;5.93;;;;;;;16.14;100.00;100029.45;1751009;80;21254;-65
2021/05/01 04:26:26;;;;;;;7.80;4.77;;;;;;;16.13;100.00;100027.81;1750000;80;21073;-65
2021/05/01 04:28:56;;;;;;;7.10;5.40;;;;;;;16.06;100.00;100024.48;1745058;80;21117;-68
2021/05/01 04:31:25;;;;;;;7.70;4.53;;;;;;;15.99;100.00;100029.86;1748691;80;21403;-67
2021/05/01 04:33:54;;;;;;;6.30;4.83;;;;;;;15.95;100.00;100032.64;1749864;80;21188;-65
2021/05/01 04:36:22;;;;;;;7.93;4.43;;;;;;;15.94;100.00;100027.59;1745098;80;21373;-65
2021/05/01 04:38:51;;;;;;;8.57;5.20;;;;;;;15.96;100.00;100038.70;1750916;80;21611;-69
2021/05/01 04:41:20;;;;;;;9.93;5.27;;;;;;;16.03;100.00;100041.52;1750105;80;21262;-69
2021/05/01 04:43:49;;;;;;;6.67;4.40;;;;;;;16.22;100.00;100041.47;1749313;80;21258;-66
2021/05/01 04:46:18;;;;;;;8.00;4.80;;;;;;;16.46;100.00;100043.11;1749803;80;20977;-64
2021/05/01 04:48:47;;;;;;;7.93;5.03;;;;;;;16.77;100.00;100042.01;1750394;80;21203;-65
2021/05/01 04:51:18;;;;;;;9.13;5.13;;;;;;;17.28;100.00;100028.36;1749039;80;21541;-67
2021/05/01 04:53:46;;;;;;;6.83;4.05;;;;;;;17.89;100.00;100028.23;1753064;80;21575;-67
2021/05/01 04:56:14;;;;;;;8.47;4.50;;;;;;;18.24;100.00;100029.36;1750660;80;21137;-67
2021/05/01 04:58:44;;;;;;;7.00;3.83;;;;;;;18.43;100.00;100033.36;1756215;80;21130;-70
2021/05/01 05:01:12;;;;;;;7.23;3.83;;;;;;;18.59;100.00;100029.11;1747286;80;22467;-65
2021/05/01 05:03:40;;;;;;;6.63;3.90;;;;;;;18.71;100.00;100028.56;1748468;80;21224;-65
2021/05/01 05:06:10;;;;;;;6.47;4.20;;;;;;;18.79;100.00;100030.48;1749284;80;21493;-66
2021/05/01 05:08:38;;;;;;;6.90;4.30;;;;;;;18.92;100.00;100033.59;1748299;80;21196;-68
2021/05/01 05:11:07;;;;;;;7.20;3.93;;;;;;;19.08;100.00;100027.98;1746564;80;21093;-67
2021/05/01 05:13:35;;;;;;;5.90;3.67;;;;;;;19.17;100.00;100023.10;1749490;80;22760;-65
2021/05/01 05:16:05;;;;;;;6.03;3.77;;;;;;;19.06;100.00;100022.16;1738520;80;21681;-66
2021/05/01 05:18:33;;;;;;;8.63;4.00;;;;;;;18.90;100.00;100025.62;1749394;80;21602;-68
2021/05/01 05:21:01;;;;;;;7.00;3.73;;;;;;;18.82;100.00;100025.52;1743499;80;21629;-67
2021/05/01 05:23:29;;;;;;;5.47;2.83;;;;;;;18.81;100.00;100025.77;1748813;80;21631;-70
2021/05/01 05:25:59;;;;;;;5.73;3.10;;;;;;;18.79;100.00;100023.88;1748606;80;22804;-69
2021/05/01 05:28:28;;;;;;;6.80;2.97;;;;;;;18.92;100.00;100020.91;1744763;80;21511;-71
2021/05/01 05:30:56;;;;;;;5.93;2.77;;;;;;;19.23;100.00;100028.70;1757833;80;21583;-68
2021/05/01 05:33:25;;;;;;;6.07;3.40;;;;;;;19.47;96.76;100021.84;1732694;80;21617;-67
2021/05/01 05:35:54;;;;;;;7.30;3.60;;;;;;;19.54;94.11;100029.06;1730595;80;21183;-68
2021/05/01 05:38:28;;;;;;;9.90;3.67;;;;;;;19.50;92.07;100030.08;1733319;80;21281;-70
2021/05/01 05:40:56;;;;;;;14.33;4.07;;;;;;;19.37;91.40;100029.94;1734097;80;22283;-68
2021/05/01 05:43:28;;;;;;;6.63;3.57;;;;;;;19.15;93.53;100029.14;1730877;80;21141;-68
2021/05/01 05:46:14;;;;;;;6.80;3.93;;;;;;;19.00;96.06;100028.94;1702344;82;22279;-75
2021/05/01 05:48:43;;;;;;;7.13;4.17;;;;;;;18.88;100.00;100021.13;1728295;80;21264;-69
2021/05/01 05:51:11;;;;;;;13.57;4.10;;;;;;;18.92;100.00;100024.88;1732036;80;22061;-69
2021/05/01 05:53:40;;;;;;;5.00;3.17;;;;;;;19.03;99.60;100033.73;1726853;80;21248;-70
2021/05/01 05:56:10;;;;;;;6.17;3.60;;;;;;;19.26;100.00;100035.35;1780211;77;21029;-72
2021/05/01 05:58:38;;;;;;;11.30;3.80;;;;;;;19.63;97.28;100036.87;1743664;80;21240;-68
2021/05/01 06:01:08;;;;;;;5.07;2.83;;;;;;;19.95;93.55;100034.28;1788980;77;22100;-69
2021/05/01 06:03:38;;;;;;;7.58;3.52;;;;;;;20.28;90.66;100038.56;1754092;79;21316;-69
2021/05/01 06:06:12;;;;;;;7.43;3.57;;;;;;;20.58;86.35;100045.17;1797661;77;21196;-72
2021/05/01 06:08:40;;;;;;;6.50;3.30;;;;;;;20.80;84.33;100049.04;1792501;77;21207;-67
2021/05/01 06:11:11;;;;;;;5.40;3.67;;;;;;;21.04;81.20;100047.58;1746801;79;22277;-67
2021/05/01 06:13:40;;;;;;;8.83;5.17;;;;;;;21.20;80.02;100051.09;1788911;77;21223;-70
2021/05/01 06:16:09;;;;;;;6.90;4.00;;;;;;;21.33;77.35;100049.88;1798411;77;22808;-70
2021/05/01 06:18:38;;;;;;;7.30;3.87;;;;;;;21.45;75.07;100065.03;1769386;79;21273;-68
2021/05/01 06:21:11;;;;;;;5.50;3.90;;;;;;;21.71;75.61;100065.13;1786369;78;21185;-67
2021/05/01 06:23:41;;;;;;;8.73;4.10;;;;;;;22.14;73.04;100054.61;1794753;77;21065;-67
2021/05/01 06:26:10;;;;;;;7.03;4.27;;;;;;;22.61;68.81;100072.13;1793587;77;21539;-70
2021/05/01 06:28:39;;;;;;;8.00;4.30;;;;;;;23.00;67.15;100068.39;1781005;78;22198;-67
2021/05/01 06:31:08;;;;;;;10.70;4.10;;;;;;;23.37;63.14;100065.06;1796875;77;21698;-66
2021/05/01 06:33:39;;;;;;;6.40;3.80;;;;;;;23.80;61.85;100067.55;1767414;79;20955;-70
2021/05/01 06:36:09;;;;;;;10.93;4.35;;;;;;;24.41;56.25;100063.15;1762160;79;21406;-67
2021/05/01 06:38:39;;;;;;;6.60;4.37;;;;;;;24.75;52.03;100068.98;1798497;77;21255;-70
2021/05/01 06:41:10;;;;;;;6.70;4.28;;;;;;;24.90;50.94;100066.70;1758249;79;21575;-67
2021/05/01 06:44:03;;;;;;;5.95;3.80;;;;;;;25.04;49.88;100064.13;1771363;79;21223;-71
2021/05/01 06:46:30;;;;;;;9.23;4.35;;;;;;;25.06;49.87;100072.66;1765103;80;21919;-69
2021/05/01 06:48:59;;;;;;;5.80;3.62;;;;;;;25.18;49.03;100067.74;1790446;77;21057;-67
2021/05/01 06:51:28;;;;;;;6.62;4.20;;;;;;;25.43;48.92;100066.66;1774200;79;21111;-73
2021/05/01 06:54:00;;;;;;;5.37;3.72;;;;;;;25.89;47.94;100061.50;1789319;79;21125;-66
2021/05/01 06:56:29;;;;;;;5.95;4.28;;;;;;;26.43;45.96;100057.44;1812867;77;21579;-69
2021/05/01 06:59:04;;;;;;;6.15;4.00;;;;;;;26.92;44.23;100059.28;1818194;77;21148;-69
2021/05/01 07:01:33;;;;;;;7.25;3.80;;;;;;;27.34;43.04;100056.86;1766665;80;21062;-79
2021/05/01 07:04:02;;;;;;;5.50;4.10;;;;;;;27.84;41.29;100060.91;1808519;77;21154;-70
2021/05/01 07:06:31;;;;;;;10.35;4.80;;;;;;;28.23;40.20;100062.12;1764986;79;21368;-67
2021/05/01 07:09:00;;;;;;;6.70;4.03;;;;;;;28.52;39.25;100063.58;1808021;77;21177;-68
2021/05/01 07:11:28;;;;;;;6.15;4.25;;;;;;;28.82;38.90;100066.01;1804444;77;21633;-75
2021/05/01 07:13:57;;;;;;;6.87;3.65;;;;;;;29.15;37.66;100064.34;1767781;80;22307;-69
2021/05/01 07:16:27;;;;;;;6.17;3.80;;;;;;;29.37;37.24;100070.95;1812796;77;21057;-69
2021/05/01 07:18:56;;;;;;;20.48;4.30;;;;;;;29.56;36.47;100074.69;1769310;79;22228;-68
2021/05/01 07:21:24;;;;;;;8.33;3.72;;;;;;;29.50;36.66;100075.94;1773091;77;21081;-71
2021/05/01 07:23:52;;;;;;;4.45;3.35;;;;;;;29.49;36.72;100079.18;1806202;77;21254;-68
2021/05/01 07:26:22;;;;;;;5.78;3.52;;;;;;;29.58;36.49;100079.21;1766462;80;21167;-72
2021/05/01 07:28:51;;;;;;;5.37;3.60;;;;;;;29.63;36.06;100077.73;1808828;77;21532;-70
2021/05/01 07:31:27;;;;;;;5.83;3.30;;;;;;;29.67;35.99;100076.00;1807701;77;21306;-69
2021/05/01 07:33:57;;;;;;;5.00;3.62;;;;;;;29.79;35.61;100078.05;1773758;79;21605;-68
2021/05/01 07:36:39;;;;;;;6.28;3.30;;;;;;;29.90;35.19;100070.48;1779992;77;21046;-69
2021/05/01 07:39:12;;;;;;;13.08;3.77;;;;;;;29.97;35.33;100062.73;1755460;79;21487;-69
2021/05/01 07:41:44;;;;;;;5.45;3.20;;;;;;;30.03;35.58;100068.94;1794813;77;21129;-68
2021/05/01 07:44:12;;;;;;;5.00;3.33;;;;;;;30.24;35.14;100062.39;1771596;79;22145;-68
2021/05/01 07:46:41;;;;;;;4.83;3.55;;;;;;;30.42;35.27;100059.65;1818642;77;21132;-73
2021/05/01 07:49:10;;;;;;;8.10;3.77;;;;;;;30.72;34.36;100055.94;1766753;79;21529;-72
2021/05/01 07:51:39;;;;;;;4.85;3.55;;;;;;;31.04;34.48;100056.44;1745320;80;21571;-69
2021/05/01 07:54:09;;;;;;;6.67;3.80;;;;;;;31.26;33.59;100055.37;1764269;79;21014;-70
2021/05/01 07:56:39;;;;;;;3.85;3.08;;;;;;;31.35;33.32;100050.73;1762055;80;21220;-75
2021/05/01 07:59:10;;;;;;;6.22;2.80;;;;;;;31.38;32.97;100053.34;1742081;80;21304;-70
2021/05/01 08:01:38;;;;;;;5.92;3.22;;;;;;;31.38;32.79;100052.78;1754337;80;21706;-69
2021/05/01 08:04:09;;;;;;;6.45;3.00;;;;;;;31.37;32.72;100053.12;1765893;79;21571;-69
2021/05/01 08:06:38;;;;;;;6.28;3.55;;;;;;;31.27;32.89;100062.33;1726015;80;21046;-71
2021/05/01 08:09:07;;;;;;;7.05;3.77;;;;;;;31.16;32.95;100063.25;1750851;80;21449;-70
2021/05/01 08:11:37;;;;;;;5.17;3.58;;;;;;;31.05;33.27;100058.02;1762148;79;21066;-75
2021/05/01 08:14:06;;;;;;;4.30;3.05;;;;;;;31.16;33.51;100057.87;1750631;80;21408;-73
2021/05/01 08:16:35;;;;;;;5.25;3.27;;;;;;;31.22;33.47;100056.58;1807068;76;21188;-73
2021/05/01 08:19:04;;;;;;;5.35;3.40;;;;;;;31.39;33.36;100052.22;1809556;77;21589;-68
2021/05/01 08:21:35;;;;;;;11.95;3.25;;;;;;;31.39;33.19;100050.87;1767524;80;22076;-70
2021/05/01 08:24:05;;;;;;;8.08;3.65;;;;;;;31.47;32.94;100052.15;1745961;80;21200;-69
2021/05/01 08:26:33;;;;;;;7.80;3.93;;;;;;;31.48;32.83;100056.97;1739725;80;21094;-74
2021/05/01 08:29:02;;;;;;;5.53;3.37;;;;;;;31.43;32.82;100050.44;1731186;80;21135;-70
2021/05/01 08:31:32;;;;;;;5.70;3.10;;;;;;;31.39;33.00;100053.00;1726624;81;21070;-71
2021/05/01 08:34:01;;;;;;;4.60;3.40;;;;;;;31.40;32.85;100043.80;1748797;80;22273;-73
2021/05/01 08:36:30;;;;;;;5.92;3.67;;;;;;;31.33;32.91;100042.74;1801897;77;21144;-73
2021/05/01 08:39:00;;;;;;;3.98;3.35;;;;;;;31.15;32.94;100046.87;1808959;77;21522;-73
2021/05/01 08:41:29;;;;;;;4.33;3.12;;;;;;;30.89;33.42;100055.65;1822700;77;21110;-71
2021/05/01 08:44:08;;;;;;;9.48;3.45;;;;;;;30.72;33.67;100043.83;1801267;78;21077;-70
2021/05/01 08:46:37;;;;;;;5.03;3.35;;;;;;;30.76;34.07;100040.75;1811513;77;21185;-70
2021/05/01 08:49:08;;;;;;;5.65;3.65;;;;;;;30.85;33.66;100046.64;1805163;77;21499;-71
2021/05/01 08:51:40;;;;;;;5.00;3.27;;;;;;;30.86;33.13;100045.52;1819386;77;21223;-69
2021/05/01 08:54:08;;;;;;;6.92;3.12;;;;;;;30.96;33.40;100048.64;1809527;78;21978;-72
2021/05/01 08:56:39;;;;;;;4.00;2.75;;;;;;;31.08;32.96;100045.25;1816282;77;21192;-69
2021/05/01 08:59:08;;;;;;;11.22;2.72;;;;;;;31.15;32.88;100047.44;1765939;80;21215;-71
2021/05/01 09:01:38;;;;;;;6.40;3.45;;;;;;;31.14;32.09;100054.73;1806850;77;21192;-70
2021/05/01 09:04:09;;;;;;;5.35;3.22;;;;;;;30.97;31.92;100055.59;1756908;79;21697;-70
2021/05/01 09:06:37;;;;;;;4.72;2.90;;;;;;;30.83;32.68;100052.33;1808675;77;21602;-69
2021/05/01 09:09:08;;;;;;;5.10;2.83;;;;;;;30.83;32.99;100032.16;1802283;77;21483;-72
2021/05/01 09:11:45;;;;;;;6.03;3.70;;;;;;;30.96;32.99;100052.68;1770004;79;21114;-70
2021/05/01 09:14:19;;;;;;;8.65;3.15;;;;;;;31.11;33.59;100055.38;1798404;77;21489;-67
2021/05/01 09:17:03;;;;;;;5.03;2.83;;;;;;;31.20;33.39;100049.38;1770401;80;21070;-68
2021/05/01 09:19:38;;;;;;;5.40;2.52;;;;;;;31.24;33.12;100054.33;1801502;77;21113;-67
2021/05/01 09:22:12;;;;;;;6.28;3.20;;;;;;;31.15;33.07;100052.27;1760435;80;21029;-67
2021/05/01 09:24:43;;;;;;;8.50;5.55;;;;;;;31.16;32.68;100049.01;1801980;77;21369;-67
2021/05/01 09:27:16;;;;;;;6.12;3.12;;;;;;;30.92;32.69;100044.24;1761386;80;21093;-68
2021/05/01 09:29:44;;;;;;;4.42;2.60;;;;;;;30.36;33.26;100055.57;1724658;80;21077;-70
2021/05/01 09:32:24;;;;;;;5.62;2.80;;;;;;;29.97;34.29;100059.48;1726631;80;21093;-67
2021/05/01 09:34:54;;;;;;;4.85;2.90;;;;;;;29.98;34.95;100058.92;1726359;80;21215;-66
2021/05/01 09:37:24;;;;;;;3.87;2.80;;;;;;;30.26;34.93;100062.06;1738332;80;22164;-66
2021/05/01 09:42:45;;;;;;;7.47;2.80;;;;;;;30.71;33.73;100054.90;1823564;75;23339;-67
2021/05/01 09:45:22;;;;;;;6.10;3.27;;;;;;;30.53;33.85;100060.36;1812441;78;21456;-70
2021/05/01 09:47:52;;;;;;;5.47;3.15;;;;;;;30.42;33.91;100055.61;1791613;76;21578;-67
2021/05/01 09:50:26;;;;;;;4.12;2.80;;;;;;;30.49;33.67;100059.95;1797901;76;21009;-65
2021/05/01 09:53:04;;;;;;;5.75;3.12;;;;;;;30.64;33.54;100052.70;1811001;76;21081;-66
2021/05/01 09:55:52;;;;;;;8.80;3.12;;;;;;;30.77;33.71;100056.34;1804244;76;21223;-69
2021/05/01 09:58:26;;;;;;;7.67;3.17;;;;;;;30.63;33.35;100058.41;1797848;76;20959;-70
2021/05/01 10:01:14;;;;;;;5.58;3.65;;;;;;;30.31;33.69;100060.57;1803958;76;21366;-71
2021/05/01 10:03:43;;;;;;;4.37;3.00;;;;;;;29.97;34.11;100064.86;1803345;76;21390;-71
2021/05/01 10:06:15;;;;;;;5.75;3.20;;;;;;;29.36;35.16;100068.56;1802864;78;21146;-71
2021/05/01 10:08:43;;;;;;;4.80;3.20;;;;;;;28.97;36.25;100063.46;1805644;76;21120;-75
2021/05/01 10:11:13;;;;;;;5.78;3.60;;;;;;;28.78;36.28;100060.47;1756965;78;21152;-72
2021/05/01 10:13:54;;;;;;;6.33;3.98;;;;;;;28.66;36.43;100064.28;1805213;76;22597;-72
2021/05/01 10:16:24;;;;;;;5.12;3.37;;;;;;;28.62;36.61;100059.30;1803714;76;21234;-71
2021/05/01 10:19:06;;;;;;;3.65;2.70;;;;;;;28.78;35.97;100057.78;1809257;76;21002;-71
2021/05/01 10:21:37;;;;;;;5.17;3.27;;;;;;;28.92;35.11;100055.00;1809663;78;21097;-71
2021/05/01 10:24:08;;;;;;;4.50;3.08;;;;;;;28.77;35.45;100058.89;1807628;76;21783;-71
2021/05/01 10:26:48;;;;;;;5.53;3.72;;;;;;;28.36;36.39;100062.59;1806889;78;21288;-72
2021/05/01 10:29:37;;;;;;;9.68;4.12;;;;;;;28.06;37.17;100060.66;1808908;78;23006;-74
2021/05/01 10:31:59;;;;;;;7.58;3.33;;;;;;;27.73;37.71;100051.48;1781865;78;21631;-71
2021/05/01 10:34:29;;;;;;;4.92;2.98;;;;;;;27.39;38.52;100058.66;1797517;79;21136;-70
2021/05/01 10:37:00;;;;;;;5.00;3.60;;;;;;;27.11;39.46;100055.20;1794220;78;21227;-76
2021/05/01 10:39:28;;;;;;;4.92;2.95;;;;;;;26.89;40.63;100059.31;1802297;78;25007;-71
2021/05/01 10:41:59;;;;;;;5.47;3.35;;;;;;;26.67;41.48;100060.56;1765833;79;21204;-73
2021/05/01 10:44:28;;;;;;;3.80;2.65;;;;;;;26.49;42.56;100056.85;1759419;80;21044;-69
2021/05/01 10:47:08;;;;;;;6.83;2.77;;;;;;;26.41;43.01;100056.95;1775436;79;22247;-70
2021/05/01 10:49:38;;;;;;;5.87;3.40;;;;;;;26.35;42.65;100053.31;1804153;78;21203;-70
2021/05/01 10:52:15;;;;;;;3.90;2.83;;;;;;;26.19;43.30;100056.78;1814586;78;22104;-70
2021/05/01 10:55:04;;;;;;;11.50;3.70;;;;;;;26.03;44.73;100062.91;1754462;79;21270;-71
2021/05/01 10:57:39;;;;;;;6.90;4.28;;;;;;;25.92;45.24;100060.14;1787408;78;21064;-69
2021/05/01 11:00:12;;;;;;;5.33;3.20;;;;;;;25.91;44.30;100064.70;1778161;78;21626;-69
2021/05/01 11:02:42;;;;;;;6.87;5.30;;;;;;;25.87;44.89;100065.53;1782505;79;21025;-70
2021/05/01 11:05:12;;;;;;;8.70;7.67;;;;;;;25.85;45.01;100052.48;1803379;79;21206;-69
2021/05/01 11:08:03;;;;;;;8.20;7.40;;;;;;;25.88;45.77;100054.59;1798952;79;21183;-71
2021/05/01 11:10:32;;;;;;;6.92;4.15;;;;;;;25.96;45.39;100055.26;1802769;79;21199;-70
2021/05/01 11:13:00;;;;;;;5.83;3.60;;;;;;;26.09;43.48;100048.92;1794400;79;21140;-69
2021/05/01 11:15:29;;;;;;;5.07;3.83;;;;;;;26.11;42.61;100046.77;1736683;79;21701;-71
2021/05/01 11:18:07;;;;;;;4.77;2.90;;;;;;;26.11;43.86;100045.43;1795877;79;21586;-71
2021/05/01 11:20:36;;;;;;;5.00;3.17;;;;;;;26.25;44.86;100045.45;1794024;79;21529;-70
2021/05/01 11:23:05;;;;;;;5.67;2.93;;;;;;;26.44;44.46;100040.34;1786124;79;21539;-68
2021/05/01 11:25:35;;;;;;;4.50;3.12;;;;;;;26.77;44.10;100043.52;1774690;79;21211;-69
2021/05/01 11:28:04;;;;;;;7.20;3.97;;;;;;;27.18;42.78;100036.08;1784921;79;21572;-69
2021/05/01 11:30:32;;;;;;;6.07;3.93;;;;;;;27.55;41.56;100040.37;1795343;79;21255;-68
2021/05/01 11:33:03;;;;;;;3.60;2.80;;;;;;;27.91;40.81;100039.59;1787750;79;21009;-70
2021/05/01 11:35:31;;;;;;;5.77;3.00;;;;;;;28.22;39.42;100035.06;1789834;79;21443;-70
2021/05/01 11:38:02;;;;;;;10.45;4.40;;;;;;;28.39;39.34;100037.09;1786185;78;21215;-72
2021/05/01 11:40:34;;;;;;;5.80;2.90;;;;;;;28.63;37.98;100038.08;1779167;78;22772;-71
2021/05/01 11:43:02;;;;;;;8.83;4.45;;;;;;;28.77;37.28;100044.14;1794748;78;22132;-70
2021/05/01 11:45:52;;;;;;;8.73;4.62;;;;;;;28.88;36.29;100041.97;1791080;78;21001;-69
2021/05/01 11:48:36;;;;;;;6.92;5.62;;;;;;;28.86;35.26;100042.82;1764278;79;22199;-69
2021/05/01 11:51:05;;;;;;;7.12;4.37;;;;;;;28.82;36.09;100036.50;1747422;80;21052;-69
2021/05/01 11:53:44;;;;;;;8.88;3.40;;;;;;;28.94;36.39;100034.00;1759102;77;21199;-71
2021/05/01 11:57:03;;;;;;;3.72;3.02;;;;;;;29.01;36.58;100032.25;1786107;77;21595;-69
2021/05/01 11:59:31;;;;;;;9.03;4.53;;;;;;;29.11;36.29;100025.81;1708391;82;21140;-65
2021/05/01 12:02:03;;;;;;;9.40;3.83;;;;;;;29.27;35.25;100028.28;1751434;80;21049;-67
2021/05/01 12:05:15;;;;;;;4.08;3.27;;;;;;;29.32;35.42;100029.47;1706086;82;21283;-66
2021/05/01 12:08:16;;;;;;;5.67;3.12;;;;;;;29.28;34.70;100027.98;1723916;81;21174;-67
2021/05/01 12:10:49;;;;;;;4.87;3.00;;;;;;;29.06;35.50;100020.83;1706200;81;21119;-66
2021/05/01 12:13:35;;;;;;;26.25;4.70;;;;;;;28.76;35.56;100025.12;1730467;81;21230;-68
2021/05/01 12:16:05;;;;;;;3.90;2.67;;;;;;;28.52;36.71;100023.35;1724621;81;21151;-65
2021/05/01 12:18:49;;;;;;;6.97;2.80;;;;;;;28.42;37.29;100026.32;1739207;81;21522;-65
2021/05/01 12:21:22;;;;;;;4.45;2.65;;;;;;;28.33;37.51;100022.98;1729082;81;21559;-66
2021/05/01 12:23:53;;;;;;;7.08;2.55;;;;;;;28.21;37.13;100022.77;1726992;81;21382;-66
2021/05/01 12:26:40;;;;;;;8.38;3.08;;;;;;;28.08;35.83;100020.97;1729525;81;21152;-69
2021/05/01 12:29:24;;;;;;;11.00;4.53;;;;;;;27.96;37.00;100009.98;1724260;82;21081;-64
2021/05/01 12:32:07;;;;;;;4.90;3.30;;;;;;;27.85;37.21;100003.55;1726873;81;21230;-67
2021/05/01 12:34:54;;;;;;;3.20;2.10;;;;;;;27.68;38.20;100004.72;1729763;82;21294;-67
2021/05/01 12:37:23;;;;;;;4.97;2.35;;;;;;;27.65;37.01;100003.98;1725803;82;21207;-67
2021/05/01 12:39:52;;;;;;;5.37;4.07;;;;;;;27.61;36.23;99989.62;1726856;82;21706;-66
2021/05/01 12:42:26;;;;;;;5.73;3.70;;;;;;;27.50;36.61;99993.62;1720899;82;21021;-67
2021/05/01 12:44:54;;;;;;;4.70;2.97;;;;;;;27.17;37.08;99995.15;1730851;82;21282;-64
2021/05/01 12:47:42;;;;;;;8.10;3.20;;;;;;;26.96;38.11;100001.97;1720627;82;21234;-67
2021/05/01 12:50:24;;;;;;;3.80;2.37;;;;;;;27.00;38.08;100013.66;1724148;82;21422;-67
2021/05/01 12:52:52;;;;;;;5.40;3.22;;;;;;;27.07;38.33;100008.15;1720777;82;21152;-68
2021/05/01 12:55:20;;;;;;;5.73;3.17;;;;;;;27.10;38.93;100004.88;1725074;82;22507;-67
2021/05/01 12:57:48;;;;;;;6.50;2.37;;;;;;;27.21;38.61;100000.14;1729066;81;21651;-66
2021/05/01 13:00:27;;;;;;;4.37;2.53;;;;;;;27.37;37.97;100004.62;1711071;82;21160;-66
2021/05/01 13:03:14;;;;;;;6.70;2.30;;;;;;;27.49;37.56;100002.20;1714605;82;21145;-67
2021/05/01 13:05:42;;;;;;;3.40;2.07;;;;;;;27.63;35.95;100007.53;1714726;83;21442;-65
2021/05/01 13:08:25;;;;;;;3.97;2.73;;;;;;;27.67;35.38;99999.68;1715818;82;21591;-64
2021/05/01 13:10:55;;;;;;;4.87;3.23;;;;;;;27.59;36.18;100006.55;1714469;82;21572;-66
2021/05/01 13:13:34;;;;;;;5.67;3.73;;;;;;;27.38;37.35;100004.30;1712515;82;21092;-67
2021/05/01 13:16:09;;;;;;;6.20;3.00;;;;;;;27.34;37.94;100004.66;1716393;82;21283;-67
2021/05/01 13:19:06;;;;;;;5.80;2.57;;;;;;;27.46;37.44;100008.70;1720192;82;21604;-67
2021/05/01 13:21:56;;;;;;;3.70;2.40;;;;;;;27.49;37.18;100006.77;1708201;82;21153;-68
2021/05/01 13:24:19;;;;;;;4.97;2.60;;;;;;;27.47;37.04;100003.62;1712077;82;21251;-68
2021/05/01 13:26:52;;;;;;;5.53;2.10;;;;;;;27.49;36.72;99997.40;1716011;82;21085;-67
2021/05/01 13:29:32;;;;;;;4.47;2.03;;;;;;;27.53;36.86;100012.55;1714707;83;21395;-68
2021/05/01 13:32:00;;;;;;;4.93;2.50;;;;;;;27.50;36.57;100002.98;1715521;83;21730;-64
2021/05/01 13:34:29;;;;;;;3.80;2.30;;;;;;;27.56;36.77;100001.24;1711333;82;21667;-67
2021/05/01 13:36:57;;;;;;;7.37;2.90;;;;;;;27.65;37.18;100009.34;1710190;82;21042;-69
2021/05/01 13:39:28;;;;;;;6.27;2.53;;;;;;;27.79;37.78;100003.42;1711613;83;21124;-71
2021/05/01 13:42:14;;;;;;;5.80;2.80;;;;;;;27.87;37.78;100002.69;1715087;82;21215;-67
2021/05/01 13:44:52;;;;;;;4.73;2.50;;;;;;;27.89;37.65;100002.40;1713070;82;21037;-67
2021/05/01 13:47:35;;;;;;;3.53;2.40;;;;;;;27.98;37.97;100009.94;1714476;82;21406;-67
2021/05/01 13:50:12;;;;;;;7.30;2.33;;;;;;;28.07;37.82;100014.00;1708815;82;21187;-65
2021/05/01 13:52:50;;;;;;;3.80;2.47;;;;;;;28.20;36.42;100011.03;1804303;78;22983;-66
2021/05/01 13:55:30;;;;;;;4.45;2.42;;;;;;;28.18;35.85;100013.20;1774175;79;21085;-68
2021/05/01 13:58:11;;;;;;;5.00;2.70;;;;;;;28.16;35.53;100014.86;1788754;77;21181;-67
2021/05/01 14:00:48;;;;;;;5.20;2.43;;;;;;;28.10;35.71;100018.75;1782765;79;22480;-67
2021/05/01 14:03:23;;;;;;;6.03;2.10;;;;;;;28.01;35.92;100018.70;1794539;79;20883;-67
2021/05/01 14:05:52;;;;;;;5.70;2.30;;;;;;;27.85;36.01;100016.95;1781887;77;21085;-67
2021/05/01 14:08:22;;;;;;;4.15;1.75;;;;;;;27.68;36.20;100020.00;1774846;79;20987;-66
2021/05/01 14:10:55;;;;;;;3.92;2.27;;;;;;;27.46;36.34;100008.70;1786614;79;20974;-65
2021/05/01 14:13:29;;;;;;;4.22;1.77;;;;;;;27.28;36.63;100023.28;1790645;79;20990;-65
2021/05/01 14:16:02;;;;;;;7.07;2.23;;;;;;;27.12;36.49;100017.46;1782390;79;20989;-64
2021/05/01 14:18:32;;;;;;;2.53;2.00;;;;;;;26.87;36.16;100018.72;1751481;79;21795;-66
2021/05/01 14:21:08;;;;;;;3.00;1.60;;;;;;;26.51;36.73;100025.80;1786578;79;21605;-71
2021/05/01 14:23:36;;;;;;;2.30;1.70;;;;;;;26.26;36.97;100027.03;1790484;79;21193;-68
2021/05/01 14:26:14;;;;;;;3.23;1.50;;;;;;;25.91;37.58;100033.98;1733851;82;21247;-65
2021/05/01 14:28:42;;;;;;;5.77;1.93;;;;;;;25.56;38.46;100027.23;1719042;82;21148;-66
2021/05/01 14:31:22;;;;;;;4.00;2.13;;;;;;;25.22;39.43;100027.41;1722422;82;21149;-66
2021/05/01 14:33:54;;;;;;;4.13;2.13;;;;;;;24.98;39.92;100030.08;1753858;81;20993;-68
2021/05/01 14:36:24;;;;;;;3.13;1.83;;;;;;;24.74;40.80;100026.87;1753343;80;22069;-67
2021/05/01 14:38:53;;;;;;;4.00;1.70;;;;;;;24.59;41.71;100035.02;1756623;80;21554;-66
2021/05/01 14:41:26;;;;;;;4.00;1.80;;;;;;;24.43;41.92;100029.02;1692037;82;21101;-69
2021/05/01 14:43:54;;;;;;;5.37;2.37;;;;;;;24.27;42.46;100030.98;1732766;82;21241;-67
2021/05/01 14:46:25;;;;;;;5.43;2.20;;;;;;;24.12;43.37;100032.98;1719264;81;21132;-69
2021/05/01 14:49:14;;;;;;;3.90;1.93;;;;;;;24.01;43.37;100029.06;1738002;82;21368;-68